Time;durP1;ratioP1;P1;durP2;ratioP2;P2;SDS_P1;SDS_P2;PMS_P1;PMS_P2;Temp;Humidity;BMP_temperature;BMP_pressure;BME280_temperature;BME280_humidity;BME280_pressure;Samples;Min_cycle;Max_cycle;Signal;HPM_P1;HPM_P2
2021/04/19 00:01:35;;;;;;;65.30;28.15;;;5.80;99.90;;;;;;10452505;28;20056;-68
2021/04/19 00:06:38;;;;;;;69.03;27.10;;;5.80;99.90;;;;;;10456416;28;20143;-67
2021/04/19 00:11:39;;;;;;;68.65;27.00;;;5.50;99.90;;;;;;10458461;28;20125;-68
2021/04/19 00:16:41;;;;;;;72.93;28.50;;;5.60;99.90;;;;;;10460373;28;21205;-69
2021/04/19 00:21:43;;;;;;;71.32;27.92;;;5.60;99.90;;;;;;10459869;28;20044;-69
2021/04/19 00:26:45;;;;;;;79.50;28.80;;;5.50;99.90;;;;;;10459782;28;20931;-69
2021/04/19 00:31:47;;;;;;;80.03;30.30;;;5.50;99.90;;;;;;10456178;28;20071;-69
2021/04/19 00:36:49;;;;;;;76.47;29.17;;;5.40;99.90;;;;;;10458508;28;20118;-69
2021/04/19 00:41:50;;;;;;;82.27;33.20;;;5.50;99.90;;;;;;10461589;28;20056;-68
2021/04/19 00:46:52;;;;;;;86.00;35.00;;;5.30;99.90;;;;;;10459336;28;20102;-67
2021/04/19 00:51:56;;;;;;;82.97;30.92;;;6.20;99.90;;;;;;10461327;28;20040;-68
2021/04/19 00:56:58;;;;;;;;;;;5.50;99.90;;;;;;10459798;28;20055;-69
2021/04/19 01:02:01;;;;;;;74.18;30.05;;;5.30;99.90;;;;;;10459743;28;19920;-68
2021/04/19 01:07:03;;;;;;;93.65;32.47;;;5.40;99.90;;;;;;10455133;28;20230;-70
2021/04/19 01:12:06;;;;;;;89.17;35.77;;;5.50;99.90;;;;;;10455166;28;20127;-69
2021/04/19 01:17:08;;;;;;;93.57;34.22;;;5.70;99.90;;;;;;10458821;28;20138;-68
2021/04/19 01:22:10;;;;;;;88.25;31.35;;;5.70;99.90;;;;;;10459220;28;20122;-68
2021/04/19 01:27:11;;;;;;;92.53;32.42;;;5.80;99.90;;;;;;10460311;28;20076;-69
2021/04/19 01:32:13;;;;;;;92.45;30.45;;;5.70;99.90;;;;;;10458583;28;20055;-69
2021/04/19 01:37:15;;;;;;;87.53;32.00;;;5.50;99.90;;;;;;10459683;28;20488;-68
2021/04/19 01:42:17;;;;;;;89.77;30.77;;;5.70;99.90;;;;;;10460820;28;20973;-68
2021/04/19 01:47:18;;;;;;;82.90;31.52;;;5.70;99.90;;;;;;10460692;28;20540;-69
2021/04/19 01:52:21;;;;;;;68.47;28.52;;;5.60;99.90;;;;;;10458879;28;20084;-68
2021/04/19 01:57:22;;;;;;;81.93;31.57;;;5.60;99.90;;;;;;10461591;28;20076;-69
2021/04/19 02:02:32;;;;;;;85.80;29.80;;;5.50;99.90;;;;;;10459904;28;20144;-69
2021/04/19 02:07:42;;;;;;;86.97;33.20;;;5.50;99.90;;;;;;10459973;28;20159;-69
2021/04/19 02:12:50;;;;;;;71.68;31.15;;;5.40;99.90;;;;;;10459220;28;20111;-69
2021/04/19 02:18:01;;;;;;;84.00;32.83;;;4.20;99.90;;;;;;10459384;28;20166;-69
2021/04/19 02:23:14;;;;;;;83.53;31.42;;;5.30;99.90;;;;;;10459405;28;20056;-69
2021/04/19 02:28:22;;;;;;;73.05;29.23;;;5.30;99.90;;;;;;10460024;28;20044;-69
2021/04/19 02:33:25;;;;;;;95.88;30.80;;;5.50;99.90;;;;;;10458858;28;20056;-69
2021/04/19 02:38:30;;;;;;;80.20;28.98;;;5.50;99.90;;;;;;10459155;28;20559;-70
2021/04/19 02:43:34;;;;;;;81.80;31.10;;;5.30;99.90;;;;;;10459194;28;20052;-69
2021/04/19 02:48:37;;;;;;;93.32;30.95;;;5.30;99.90;;;;;;10458694;28;20056;-70
2021/04/19 02:53:40;;;;;;;80.90;27.38;;;5.30;99.90;;;;;;10457816;28;20057;-70
2021/04/19 02:58:46;;;;;;;79.55;28.20;;;5.40;99.90;;;;;;10457693;28;20056;-69
2021/04/19 03:03:49;;;;;;;82.57;28.67;;;5.40;99.90;;;;;;10457199;28;20079;-70
2021/04/19 03:08:55;;;;;;;71.18;26.20;;;5.30;99.90;;;;;;10456682;28;20049;-69
2021/04/19 03:13:58;;;;;;;82.10;26.10;;;5.40;99.90;;;;;;10456866;28;20063;-69
2021/04/19 03:19:02;;;;;;;89.65;31.85;;;5.20;99.90;;;;;;10456217;28;20476;-69
2021/04/19 03:24:07;;;;;;;85.10;30.35;;;5.10;99.90;;;;;;10456346;28;20624;-69
2021/04/19 03:29:10;;;;;;;70.40;24.67;;;5.00;99.90;;;;;;10457687;28;20072;-69
2021/04/19 03:34:13;;;;;;;88.13;26.92;;;5.10;99.90;;;;;;10456965;28;20143;-69
2021/04/19 03:39:18;;;;;;;68.00;25.80;;;8.60;99.90;;;;;;10459469;28;20400;-69
2021/04/19 03:44:25;;;;;;;85.35;28.08;;;5.40;99.90;;;;;;10462524;28;20048;-68
2021/04/19 03:49:30;;;;;;;79.35;24.98;;;5.10;99.90;;;;;;10464859;28;20123;-68
2021/04/19 03:54:37;;;;;;;77.03;25.70;;;5.20;99.90;;;;;;10464970;28;20051;-69
2021/04/19 03:59:42;;;;;;;76.03;25.02;;;5.10;99.90;;;;;;10464771;28;20087;-69
2021/04/19 04:04:45;;;;;;;72.68;24.48;;;5.30;99.90;;;;;;10466367;28;20147;-69
2021/04/19 04:09:49;;;;;;;79.32;25.50;;;5.20;99.90;;;;;;10466074;28;20399;-69
2021/04/19 04:14:51;;;;;;;;;;;5.20;99.90;;;;;;10465535;28;20056;-70
2021/04/19 04:19:52;;;;;;;63.25;22.58;;;5.20;99.90;;;;;;10465243;28;20276;-68
2021/04/19 04:24:55;;;;;;;69.03;21.85;;;5.10;99.90;;;;;;10465164;28;20099;-70
2021/04/19 04:29:56;;;;;;;;;;;5.00;99.90;;;;;;10464941;28;20048;-70
2021/04/19 04:34:58;;;;;;;69.82;27.73;;;5.00;99.90;;;;;;10463225;28;20003;-70
2021/04/19 04:40:00;;;;;;;79.07;26.02;;;5.10;99.90;;;;;;10459184;28;20060;-70
2021/04/19 04:45:02;;;;;;;66.72;24.65;;;5.10;99.90;;;;;;10462789;28;20082;-69
2021/04/19 04:50:09;;;;;;;63.15;24.02;;;5.40;99.90;;;;;;10461858;28;20104;-69
2021/04/19 04:55:14;;;;;;;80.70;29.30;;;5.30;99.90;;;;;;10463202;28;20088;-68
2021/04/19 05:00:19;;;;;;;87.40;28.70;;;5.50;99.90;;;;;;10464075;28;20611;-69
2021/04/19 05:05:21;;;;;;;79.18;30.73;;;5.70;99.90;;;;;;10450787;28;20045;-69
2021/04/19 05:10:23;;;;;;;80.72;28.17;;;5.90;99.90;;;;;;10460266;28;20135;-69
2021/04/19 05:15:25;;;;;;;70.30;24.23;;;6.10;99.90;;;;;;10462543;28;20057;-70
2021/04/19 05:20:26;;;;;;;60.28;22.40;;;6.50;99.90;;;;;;10462719;28;20056;-70
2021/04/19 05:25:28;;;;;;;53.13;18.80;;;6.90;99.90;;;;;;10462623;28;20040;-70
2021/04/19 05:30:30;;;;;;;46.22;18.02;;;7.60;99.90;;;;;;10461219;28;20049;-71
2021/04/19 05:35:33;;;;;;;46.15;17.48;;;8.70;99.90;;;;;;10458151;28;20435;-69
2021/04/19 05:40:36;;;;;;;40.35;18.00;;;9.90;99.90;;;;;;10462449;28;20052;-71
2021/04/19 05:45:41;;;;;;;53.40;16.65;;;11.30;98.40;;;;;;10460980;28;20052;-70
2021/04/19 05:50:43;;;;;;;38.22;15.05;;;12.80;95.30;;;;;;10459478;28;20181;-71
2021/04/19 05:55:45;;;;;;;47.97;15.07;;;13.70;93.10;;;;;;10459676;28;20056;-71
2021/04/19 06:00:52;;;;;;;47.85;14.43;;;14.80;90.70;;;;;;10460477;28;20052;-71
2021/04/19 06:06:07;;;;;;;41.70;13.65;;;15.60;85.30;;;;;;10459824;28;20052;-71
2021/04/19 06:11:16;;;;;;;34.17;15.00;;;16.20;82.20;;;;;;10459606;28;20048;-70
2021/04/19 06:16:18;;;;;;;41.53;14.38;;;16.40;80.10;;;;;;10458616;28;20467;-71
2021/04/19 06:21:20;;;;;;;;;;;17.20;80.20;;;;;;10451013;28;20052;-70
2021/04/19 06:26:23;;;;;;;32.90;14.50;;;18.10;75.80;;;;;;10455165;28;20055;-71
2021/04/19 06:31:25;;;;;;;35.80;15.00;;;18.50;72.90;;;;;;10453532;28;20143;-71
2021/04/19 06:36:26;;;;;;;34.35;13.45;;;19.00;72.00;;;;;;10450607;28;20093;-70
2021/04/19 06:41:30;;;;;;;28.35;14.10;;;19.80;69.70;;;;;;10451295;28;20137;-70
2021/04/19 06:46:33;;;;;;;31.88;11.23;;;19.50;66.30;;;;;;10451265;28;20572;-69
2021/04/19 06:51:35;;;;;;;26.35;12.02;;;20.70;61.90;;;;;;10452506;28;20403;-69
2021/04/19 06:56:40;;;;;;;28.48;11.98;;;20.20;60.10;;;;;;10453727;28;20603;-70
2021/04/19 07:01:42;;;;;;;22.80;11.77;;;21.40;58.90;;;;;;10456376;28;20546;-69
2021/04/19 07:06:44;;;;;;;21.85;10.45;;;21.90;56.20;;;;;;10452935;28;20044;-69
2021/04/19 07:11:50;;;;;;;27.13;10.73;;;22.30;54.10;;;;;;10452756;28;20753;-70
2021/04/19 07:16:52;;;;;;;21.17;9.93;;;22.50;51.50;;;;;;10453234;28;20051;-69
2021/04/19 07:21:53;;;;;;;21.83;10.15;;;22.70;50.80;;;;;;10452525;28;20055;-69
2021/04/19 07:26:57;;;;;;;23.77;9.75;;;22.90;47.60;;;;;;10449027;28;20485;-69
2021/04/19 07:31:59;;;;;;;23.73;10.00;;;23.30;46.20;;;;;;10449615;28;20060;-69
2021/04/19 07:37:02;;;;;;;20.50;9.32;;;23.20;44.00;;;;;;10449368;28;20052;-69
2021/04/19 07:42:06;;;;;;;21.50;10.65;;;23.10;45.10;;;;;;10449315;28;20059;-68
2021/04/19 07:47:32;;;;;;;24.77;10.82;;;19.80;52.10;;;;;;10450131;28;20041;-69
2021/04/19 07:52:36;;;;;;;21.30;9.90;;;18.10;60.10;;;;;;10450224;28;20044;-69
2021/04/19 07:57:40;;;;;;;21.20;10.10;;;17.60;61.40;;;;;;10449994;28;20072;-68
2021/04/19 08:02:41;;;;;;;29.92;10.65;;;17.20;63.70;;;;;;10449870;28;20075;-68
2021/04/19 08:07:53;;;;;;;21.67;10.32;;;17.80;64.90;;;;;;10451062;28;20060;-68
2021/04/19 08:13:07;;;;;;;25.10;10.65;;;15.70;70.80;;;;;;10447103;28;20044;-68
2021/04/19 08:18:11;;;;;;;23.25;10.68;;;15.90;69.80;;;;;;10445915;28;20041;-69
2021/04/19 08:23:14;;;;;;;29.00;10.57;;;15.20;73.20;;;;;;10448929;28;20522;-68
2021/04/19 08:28:17;;;;;;;29.77;10.68;;;14.70;75.70;;;;;;10458791;28;20098;-68
2021/04/19 08:33:19;;;;;;;32.25;11.27;;;14.50;76.90;;;;;;10460214;28;20149;-68
2021/04/19 08:38:24;;;;;;;28.13;11.30;;;14.20;78.30;;;;;;10459224;28;20044;-68
2021/04/19 08:43:29;;;;;;;26.58;11.02;;;13.90;79.70;;;;;;10459172;28;20599;-69
2021/04/19 08:48:31;;;;;;;25.88;12.13;;;13.60;81.50;;;;;;10461286;28;20063;-68
2021/04/19 08:53:33;;;;;;;28.37;11.37;;;14.00;81.20;;;;;;10459800;28;20056;-68
2021/04/19 08:58:36;;;;;;;30.80;11.70;;;14.30;79.70;;;;;;10458480;28;20079;-68
2021/04/19 09:03:37;;;;;;;25.52;10.75;;;15.00;77.70;;;;;;10457887;28;20060;-68
2021/04/19 09:08:39;;;;;;;26.08;11.68;;;15.70;75.00;;;;;;10457371;28;20163;-68
2021/04/19 09:13:43;;;;;;;31.00;11.10;;;16.10;72.80;;;;;;10457117;28;20164;-68
2021/04/19 09:18:46;;;;;;;27.48;11.82;;;16.30;71.90;;;;;;10458215;28;20097;-68
2021/04/19 09:23:54;;;;;;;24.38;11.30;;;16.20;71.80;;;;;;10457748;28;20500;-69
2021/04/19 09:28:57;;;;;;;25.92;11.52;;;16.40;70.90;;;;;;10458670;28;20733;-68
2021/04/19 09:34:13;;;;;;;26.23;11.50;;;17.30;68.30;;;;;;10456006;28;20053;-68
2021/04/19 09:39:46;;;;;;;21.13;12.02;;;18.50;65.80;;;;;;10456598;28;20060;-68
2021/04/19 09:44:54;;;;;;;27.83;12.77;;;19.70;59.30;;;;;;10456712;28;20083;-68
2021/04/19 09:49:55;;;;;;;26.02;11.07;;;20.10;58.20;;;;;;10457371;28;20174;-68
2021/04/19 09:55:00;;;;;;;22.98;10.88;;;20.50;57.10;;;;;;10457105;28;20151;-67
2021/04/19 10:00:04;;;;;;;21.75;10.70;;;20.60;55.80;;;;;;10456974;28;20524;-68
2021/04/19 10:05:07;;;;;;;20.10;10.90;;;20.30;55.10;;;;;;10456349;28;20052;-68
2021/04/19 10:10:10;;;;;;;22.67;11.52;;;20.50;55.50;;;;;;10455561;28;20476;-68
2021/04/19 10:15:22;;;;;;;27.95;11.77;;;20.90;53.80;;;;;;10453672;28;20872;-67
2021/04/19 10:20:26;;;;;;;26.58;10.93;;;21.70;51.80;;;;;;10454985;28;20058;-68
2021/04/19 10:25:28;;;;;;;22.70;10.68;;;22.50;50.40;;;;;;10452723;28;20084;-68
2021/04/19 10:30:30;;;;;;;26.73;11.80;;;23.60;49.20;;;;;;10453862;28;20100;-68
2021/04/19 10:35:33;;;;;;;19.23;11.27;;;22.90;47.10;;;;;;10451895;28;20488;-68
2021/04/19 10:40:35;;;;;;;25.42;12.27;;;21.90;48.80;;;;;;10451528;28;20178;-68
2021/04/19 10:45:37;;;;;;;23.00;11.98;;;21.80;49.10;;;;;;10454290;28;20568;-67
2021/04/19 10:50:39;;;;;;;23.45;12.60;;;21.00;50.30;;;;;;10451134;28;20153;-66
2021/04/19 10:55:40;;;;;;;23.20;12.48;;;20.00;53.70;;;;;;10451585;28;20068;-67
2021/04/19 11:00:43;;;;;;;22.13;11.48;;;19.70;55.30;;;;;;10453021;28;20404;-67
2021/04/19 11:05:44;;;;;;;21.33;11.40;;;19.70;56.10;;;;;;10452698;28;20101;-66
2021/04/19 11:10:46;;;;;;;21.50;11.35;;;20.00;55.20;;;;;;10453908;28;20055;-66
2021/04/19 11:15:50;;;;;;;23.52;11.95;;;21.60;55.30;;;;;;10446613;28;20514;-66
2021/04/19 11:20:52;;;;;;;23.80;12.45;;;20.30;54.40;;;;;;10452797;28;20055;-68
2021/04/19 11:25:56;;;;;;;27.52;13.30;;;20.80;53.10;;;;;;10454390;28;20531;-66
2021/04/19 11:31:11;;;;;;;25.00;13.57;;;21.10;52.00;;;;;;10454307;28;20538;-69
2021/04/19 11:36:12;;;;;;;26.35;13.35;;;21.20;51.40;;;;;;10450958;28;20060;-68
2021/04/19 11:41:14;;;;;;;22.17;13.23;;;21.20;50.90;;;;;;10454428;28;20181;-68
2021/04/19 11:46:20;;;;;;;24.40;13.40;;;20.60;52.30;;;;;;10452305;28;20062;-67
2021/04/19 11:51:22;;;;;;;30.75;14.43;;;20.50;52.90;;;;;;10453538;28;20072;-68
2021/04/19 11:56:23;;;;;;;28.80;13.35;;;21.30;53.50;;;;;;10453704;28;20051;-69
2021/04/19 12:01:25;;;;;;;32.45;14.70;;;19.90;54.50;;;;;;10449777;28;20163;-69
2021/04/19 12:06:27;;;;;;;;;;;19.00;56.80;;;;;;10461390;28;20048;-69
2021/04/19 12:11:28;;;;;;;25.08;15.55;;;18.10;59.60;;;;;;10458505;28;20409;-67
2021/04/19 12:16:31;;;;;;;25.75;15.25;;;17.20;63.60;;;;;;10460932;28;20094;-66
2021/04/19 12:21:34;;;;;;;30.10;15.82;;;16.90;66.80;;;;;;10459237;28;20107;-67
2021/04/19 12:26:35;;;;;;;28.30;16.13;;;16.90;67.90;;;;;;10460683;28;20056;-66
2021/04/19 12:31:38;;;;;;;32.58;15.65;;;17.00;68.30;;;;;;10458707;28;20481;-67
2021/04/19 12:36:39;;;;;;;32.83;16.08;;;17.00;68.90;;;;;;10454420;28;20083;-66
2021/04/19 12:41:40;;;;;;;26.13;14.73;;;16.90;69.70;;;;;;10460029;28;20875;-68
2021/04/19 12:46:43;;;;;;;40.92;16.65;;;17.80;68.00;;;;;;10458152;28;20488;-69
2021/04/19 12:51:45;;;;;;;28.80;17.55;;;18.40;64.50;;;;;;10459313;28;20160;-67
2021/04/19 12:56:47;;;;;;;36.17;16.98;;;17.60;68.00;;;;;;10457860;28;20469;-69
2021/04/19 13:01:49;;;;;;;32.20;16.38;;;16.90;73.00;;;;;;10455925;28;20143;-68
2021/04/19 13:06:51;;;;;;;32.92;16.00;;;16.90;71.60;;;;;;10457063;28;20059;-68
2021/04/19 13:11:52;;;;;;;33.87;16.77;;;16.60;71.00;;;;;;10456218;28;20044;-67
2021/04/19 13:16:54;;;;;;;26.42;16.48;;;16.20;76.00;;;;;;10456000;28;21394;-67
2021/04/19 13:21:55;;;;;;;30.55;16.50;;;16.00;74.90;;;;;;10456729;28;20147;-67
2021/04/19 13:26:57;;;;;;;20.92;14.40;;;15.70;75.50;;;;;;10457523;28;20174;-68
2021/04/19 13:32:00;;;;;;;35.93;17.00;;;15.50;76.30;;;;;;10455732;28;20083;-69
2021/04/19 13:37:03;;;;;;;27.00;14.98;;;15.60;76.10;;;;;;10455752;28;20063;-67
2021/04/19 13:42:04;;;;;;;31.48;16.17;;;15.70;75.70;;;;;;10458131;28;20110;-67
2021/04/19 13:47:06;;;;;;;24.35;15.05;;;16.00;74.80;;;;;;10456432;28;20048;-67
2021/04/19 13:52:08;;;;;;;26.17;16.02;;;15.90;75.20;;;;;;10456524;28;20044;-67
2021/04/19 13:57:09;;;;;;;26.23;15.90;;;15.60;77.80;;;;;;10454570;28;21837;-67
2021/04/19 14:02:12;;;;;;;28.88;15.73;;;15.50;76.80;;;;;;10453915;28;20997;-68
2021/04/19 14:07:13;;;;;;;30.80;15.07;;;15.80;75.80;;;;;;10454961;28;20078;-68
2021/04/19 14:12:16;;;;;;;25.57;14.10;;;16.40;75.00;;;;;;10454456;28;20464;-68
2021/04/19 14:17:18;;;;;;;23.75;12.98;;;17.60;71.90;;;;;;10455263;28;20128;-69
2021/04/19 14:22:20;;;;;;;23.63;13.15;;;18.70;67.40;;;;;;10452662;28;20152;-68
2021/04/19 14:27:21;;;;;;;25.10;13.88;;;19.70;62.80;;;;;;10454695;28;20049;-68
2021/04/19 14:32:23;;;;;;;19.83;12.83;;;20.50;59.10;;;;;;10454069;28;20048;-68
2021/04/19 14:37:25;;;;;;;25.38;13.23;;;20.80;56.20;;;;;;10454798;28;20572;-68
2021/04/19 14:42:28;;;;;;;20.97;13.00;;;20.70;54.40;;;;;;10452778;28;20414;-68
2021/04/19 14:47:30;;;;;;;21.27;14.43;;;19.90;56.60;;;;;;10453759;28;20554;-68
2021/04/19 14:52:34;;;;;;;25.50;14.57;;;19.00;58.60;;;;;;10453679;28;20143;-68
2021/04/19 14:57:36;;;;;;;24.30;13.80;;;18.10;62.00;;;;;;10451390;28;20094;-67
2021/04/19 15:02:38;;;;;;;22.88;13.02;;;17.70;64.20;;;;;;10452510;28;20693;-68
2021/04/19 15:07:39;;;;;;;;;;;17.80;64.30;;;;;;10451926;28;20512;-68
2021/04/19 15:12:41;;;;;;;25.40;14.45;;;17.80;64.40;;;;;;10453210;28;19974;-68
2021/04/19 15:17:43;;;;;;;21.33;13.30;;;17.60;65.30;;;;;;10452026;28;20084;-68
2021/04/19 15:22:44;;;;;;;;;;;17.60;66.90;;;;;;10454358;28;20595;-68
2021/04/19 15:27:46;;;;;;;21.70;13.25;;;17.70;66.20;;;;;;10449711;28;19924;-68
2021/04/19 15:32:49;;;;;;;20.10;12.97;;;17.90;65.80;;;;;;10454654;28;20459;-67
2021/04/19 15:37:50;;;;;;;21.83;12.52;;;18.30;64.40;;;;;;10460302;28;20499;-67
2021/04/19 15:42:52;;;;;;;25.97;13.03;;;18.70;62.50;;;;;;10463741;28;20520;-67
2021/04/19 15:47:54;;;;;;;1.03;0.77;;;17.90;63.30;;;;;;10461539;28;20439;-71
2021/04/19 15:52:55;;;;;;;0.10;0.10;;;15.60;87.70;;;;;;10463250;28;20460;-73
2021/04/19 15:57:56;;;;;;;0.00;0.00;;;13.10;96.50;;;;;;10466522;28;20598;-78
2021/04/19 16:02:59;;;;;;;0.03;0.03;;;12.00;99.90;;;;;;10468354;28;20626;-77
2021/04/19 16:08:00;;;;;;;12.25;7.10;;;11.40;99.90;;;;;;10470697;28;20131;-79
2021/04/19 16:13:02;;;;;;;15.38;8.82;;;11.20;99.90;;;;;;10467310;28;20048;-78
2021/04/19 16:18:06;;;;;;;18.90;9.05;;;11.30;99.90;;;;;;10465579;28;20090;-75
2021/04/19 16:23:07;;;;;;;29.88;10.85;;;11.70;99.90;;;;;;10463897;28;20088;-72
2021/04/19 16:28:09;;;;;;;28.85;12.18;;;12.00;99.90;;;;;;10462807;28;20493;-71
2021/04/19 16:33:11;;;;;;;32.75;14.30;;;12.10;99.90;;;;;;10462692;28;20078;-72
2021/04/19 16:38:12;;;;;;;42.58;15.48;;;12.30;99.90;;;;;;10463616;28;20064;-71
2021/04/19 16:43:14;;;;;;;36.78;14.45;;;12.50;99.90;;;;;;10462643;28;20492;-70
2021/04/19 16:48:16;;;;;;;41.30;14.40;;;12.70;99.90;;;;;;10460233;28;20087;-73
2021/04/19 16:53:18;;;;;;;39.63;15.67;;;12.60;99.90;;;;;;10458997;28;20891;-71
2021/04/19 16:58:19;;;;;;;48.07;17.33;;;12.50;99.90;;;;;;10459187;28;20049;-71
2021/04/19 17:03:21;;;;;;;62.75;20.63;;;12.60;99.90;;;;;;10461343;28;20058;-72
2021/04/19 17:08:23;;;;;;;48.07;18.47;;;12.40;99.90;;;;;;10453001;28;20075;-70
2021/04/19 17:13:24;;;;;;;49.35;18.60;;;12.20;99.90;;;;;;10459139;28;20133;-70
2021/04/19 17:18:26;;;;;;;56.20;22.70;;;11.90;99.90;;;;;;10456708;28;20056;-72
2021/04/19 17:23:29;;;;;;;72.80;26.00;;;11.70;99.90;;;;;;10453765;28;20182;-68
2021/04/19 17:28:30;;;;;;;72.00;28.00;;;11.30;99.90;;;;;;10454271;28;20093;-71
2021/04/19 17:33:32;;;;;;;85.88;31.42;;;12.20;99.90;;;;;;10455164;28;20606;-70
2021/04/19 17:38:34;;;;;;;75.40;31.43;;;10.70;99.90;;;;;;10453145;28;20080;-71
2021/04/19 17:43:36;;;;;;;77.20;30.80;;;10.50;99.90;;;;;;10456319;28;20427;-72
2021/04/19 17:48:39;;;;;;;81.57;32.77;;;10.50;99.90;;;;;;10454406;28;20690;-71
2021/04/19 17:53:41;;;;;;;77.47;30.98;;;10.50;99.90;;;;;;10454109;28;20138;-72
2021/04/19 17:58:43;;;;;;;80.30;32.08;;;10.50;99.90;;;;;;10458178;28;20052;-71
2021/04/19 18:03:46;;;;;;;87.45;32.25;;;10.40;99.90;;;;;;10453182;28;20147;-70
2021/04/19 18:08:47;;;;;;;;;;;10.40;99.90;;;;;;10458736;28;20082;-72
2021/04/19 18:13:51;;;;;;;95.57;32.90;;;9.80;99.90;;;;;;10455307;28;21158;-73
2021/04/19 18:18:54;;;;;;;90.53;33.15;;;10.20;99.90;;;;;;10456991;28;20414;-74
2021/04/19 18:23:56;;;;;;;75.85;30.35;;;10.00;99.90;;;;;;10457490;28;20067;-74
2021/04/19 18:28:58;;;;;;;64.65;28.92;;;9.90;99.90;;;;;;10457716;28;20214;-75
2021/04/19 18:34:01;;;;;;;80.65;31.60;;;9.60;99.90;;;;;;10465346;28;20037;-76
2021/04/19 18:39:05;;;;;;;78.80;30.27;;;9.60;99.90;;;;;;10461519;28;20052;-74
2021/04/19 18:44:08;;;;;;;77.00;28.65;;;9.50;99.90;;;;;;10451288;28;20052;-71
2021/04/19 18:49:15;;;;;;;69.82;30.08;;;9.40;99.90;;;;;;10449019;28;20048;-69
2021/04/19 18:54:18;;;;;;;75.10;29.40;;;9.20;99.90;;;;;;10450963;28;20064;-71
2021/04/19 18:59:20;;;;;;;71.40;32.08;;;9.00;99.90;;;;;;10453030;28;20088;-71
2021/04/19 19:04:22;;;;;;;72.75;32.03;;;8.80;99.90;;;;;;10453255;28;20052;-71
2021/04/19 19:09:23;;;;;;;67.40;28.60;;;8.70;99.90;;;;;;10454249;28;20473;-71
2021/04/19 19:14:24;;;;;;;81.47;30.35;;;8.60;99.90;;;;;;10452649;28;20063;-70
2021/04/19 19:19:27;;;;;;;62.97;29.25;;;8.50;99.90;;;;;;10455181;28;20983;-72
2021/04/19 19:24:28;;;;;;;80.97;31.47;;;8.40;99.90;;;;;;10453176;28;20425;-71
2021/04/19 19:29:30;;;;;;;77.72;31.13;;;8.30;99.90;;;;;;10450856;28;20097;-71
2021/04/19 19:34:33;;;;;;;79.15;33.88;;;8.30;99.90;;;;;;10452978;28;20795;-71
2021/04/19 19:39:34;;;;;;;;;;;8.20;99.90;;;;;;10454037;28;20059;-72
2021/04/19 19:44:36;;;;;;;82.70;34.67;;;8.20;99.90;;;;;;10453755;28;19967;-71
2021/04/19 19:49:38;;;;;;;86.53;35.13;;;6.50;99.90;;;;;;10453972;28;20168;-72
2021/04/19 19:54:40;;;;;;;76.07;31.53;;;8.20;99.90;;;;;;10452847;28;20075;-72
2021/04/19 19:59:42;;;;;;;83.90;33.15;;;8.00;99.90;;;;;;10453260;28;20105;-70
2021/04/19 20:04:44;;;;;;;83.43;36.22;;;7.90;99.90;;;;;;10454690;28;20040;-72
2021/04/19 20:09:46;;;;;;;102.78;38.03;;;7.80;99.90;;;;;;10451456;28;20481;-72
2021/04/19 20:14:47;;;;;;;116.22;39.25;;;7.80;99.90;;;;;;10450743;28;20080;-71
2021/04/19 20:19:51;;;;;;;103.40;38.90;;;7.80;99.90;;;;;;10449529;28;20485;-72
2021/04/19 20:24:52;;;;;;;108.18;39.92;;;7.80;99.90;;;;;;10456749;28;20048;-70
2021/04/19 20:29:54;;;;;;;117.45;41.42;;;7.80;99.90;;;;;;10460979;28;20143;-71
2021/04/19 20:34:56;;;;;;;114.22;42.83;;;7.80;99.90;;;;;;10461802;28;20060;-73
2021/04/19 20:39:58;;;;;;;109.13;39.03;;;8.00;99.90;;;;;;10461680;28;20102;-72
2021/04/19 20:44:59;;;;;;;96.57;37.63;;;8.00;99.90;;;;;;10460012;28;20617;-73
2021/04/19 20:50:02;;;;;;;95.95;38.30;;;7.90;99.90;;;;;;10459717;28;20048;-71
2021/04/19 20:55:04;;;;;;;92.03;37.77;;;7.90;99.90;;;;;;10462633;28;20496;-72
2021/04/19 21:00:10;;;;;;;88.40;36.90;;;7.90;99.90;;;;;;10462316;28;21095;-72
2021/04/19 21:05:13;;;;;;;96.75;38.72;;;7.90;99.90;;;;;;10461987;28;20128;-73
2021/04/19 21:10:16;;;;;;;99.50;39.45;;;7.90;99.90;;;;;;10461447;28;20044;-70
2021/04/19 21:15:18;;;;;;;91.43;36.00;;;7.90;99.90;;;;;;10462861;28;20080;-73
2021/04/19 21:20:21;;;;;;;94.82;38.00;;;8.00;99.90;;;;;;10463679;28;20080;-74
2021/04/19 21:25:22;;;;;;;100.75;37.67;;;8.00;99.90;;;;;;10463010;28;20049;-73
2021/04/19 21:30:23;;;;;;;102.85;37.97;;;8.10;99.90;;;;;;10463492;28;20551;-73
2021/04/19 21:35:26;;;;;;;91.72;35.80;;;8.10;99.90;;;;;;10460498;28;20051;-73
2021/04/19 21:40:27;;;;;;;74.77;33.80;;;8.00;99.90;;;;;;10461321;28;20400;-74
2021/04/19 21:45:28;;;;;;;85.22;37.35;;;8.00;99.90;;;;;;10439169;28;20049;-72
2021/04/19 21:50:31;;;;;;;91.65;37.75;;;8.10;99.90;;;;;;10460323;28;20479;-73
2021/04/19 21:55:32;;;;;;;102.30;39.95;;;8.10;99.90;;;;;;10461511;28;20722;-73
2021/04/19 22:00:35;;;;;;;88.03;33.20;;;8.20;99.90;;;;;;10459864;28;20179;-73
2021/04/19 22:05:39;;;;;;;76.00;32.90;;;8.20;99.90;;;;;;10460056;28;20052;-73
2021/04/19 22:10:40;;;;;;;76.68;33.60;;;8.10;99.90;;;;;;10460248;28;20048;-73
2021/04/19 22:15:42;;;;;;;77.95;32.67;;;8.00;99.90;;;;;;10458819;28;20143;-73
2021/04/19 22:20:44;;;;;;;64.90;30.17;;;7.80;99.90;;;;;;10459135;28;20139;-72
2021/04/19 22:25:45;;;;;;;63.80;28.97;;;7.70;99.90;;;;;;10459357;28;20122;-73
2021/04/19 22:30:47;;;;;;;74.72;30.90;;;7.60;99.90;;;;;;10459051;28;20503;-73
2021/04/19 22:35:50;;;;;;;70.97;29.33;;;7.50;99.90;;;;;;10458378;28;20056;-74
2021/04/19 22:40:51;;;;;;;64.20;28.87;;;7.60;99.90;;;;;;10457752;28;20110;-74
2021/04/19 22:45:52;;;;;;;62.75;28.52;;;7.60;99.90;;;;;;10458038;28;20053;-73
2021/04/19 22:50:55;;;;;;;65.68;29.80;;;7.60;99.90;;;;;;10458205;28;20480;-73
2021/04/19 22:55:56;;;;;;;68.67;31.03;;;7.50;99.90;;;;;;10458968;28;20178;-68
2021/04/19 23:00:57;;;;;;;66.68;30.05;;;7.50;99.90;;;;;;10459021;28;20504;-72
2021/04/19 23:06:00;;;;;;;63.92;28.38;;;7.40;99.90;;;;;;10455814;28;20075;-74
2021/04/19 23:11:02;;;;;;;61.95;28.42;;;7.30;99.90;;;;;;10458099;28;20056;-71
2021/04/19 23:16:04;;;;;;;68.28;28.15;;;7.20;99.90;;;;;;10458089;28;20051;-74
2021/04/19 23:21:06;;;;;;;68.82;29.10;;;7.20;99.90;;;;;;10457716;28;20052;-73
2021/04/19 23:26:08;;;;;;;66.95;29.63;;;7.10;99.90;;;;;;10455203;28;20048;-74
2021/04/19 23:31:09;;;;;;;69.03;27.42;;;8.30;99.90;;;;;;10455106;28;20052;-74
2021/04/19 23:36:11;;;;;;;55.95;28.30;;;7.10;99.90;;;;;;10453384;28;20106;-74
2021/04/19 23:41:13;;;;;;;58.77;28.43;;;7.10;99.90;;;;;;10456125;28;20091;-74
2021/04/19 23:46:14;;;;;;;60.35;26.80;;;7.00;99.90;;;;;;10453384;28;20461;-73
2021/04/19 23:51:18;;;;;;;61.45;28.67;;;6.90;99.90;;;;;;10454849;28;20607;-74
2021/04/19 23:56:20;;;;;;;60.10;26.60;;;6.90;99.90;;;;;;10459482;28;20056;-73
